Latest Weather Observations for Miles

IDQ60801

Issued at 8:32 pm EST Saturday 25 April 2015 (issued every 30 minutes, with the page automatically refreshed every 10 minutes)

About weather observations | Map of weather stations | Latest weather observations for QLD | Other Formats
Station Details ID: 042112 Name: MILES CONSTANCE STREET Lat: -26.66 Lon: 150.18 Height: 304.8 m
Data from the previous 72 hours. | See also: Recent months at Miles
Date/Time
EST
Temp
°C
App
Temp
°C
Dew
Point
Rel
Hum
%
Delta-T
°C
Wind Press
QNH
hPa
Press
MSL
hPa
Rain
since 9 am
mm
Dir
 
Spd
km/h
Gust
km/h
Spd
kts
Gust
kts
25/08:30pm 16.3 14.9 8.8 61 3.9 W 6 9 3 5 1012.9 - 0.0
25/08:00pm 18.5 16.0 4.8 40 6.7 W 7 11 4 6 1012.5 - 0.0
25/07:30pm 18.3 16.0 5.9 44 6.2 W 7 9 4 5 1012.2 - 0.0
25/07:00pm 20.0 17.6 4.5 36 7.6 W 6 9 3 5 1011.8 - 0.0
25/06:30pm 21.7 19.4 4.7 33 8.5 WSW 6 9 3 5 1011.4 - 0.0
25/06:00pm 23.5 20.0 1.0 22 10.6 WSW 9 17 5 9 1011.0 1009.9 0.0
25/05:30pm 24.8 20.8 0.7 20 11.4 WSW 11 20 6 11 1010.6 - 0.0
25/05:00pm 25.7 21.9 1.5 20 11.7 W 11 24 6 13 1010.2 - 0.0
25/04:30pm 27.0 21.8 0.1 17 12.8 WSW 17 26 9 14 1010.0 - 0.0
25/04:00pm 27.7 23.1 1.7 18 12.8 W 15 28 8 15 1009.8 - 0.0
25/03:30pm 28.1 23.5 1.4 18 13.1 WSW 15 26 8 14 1009.6 - 0.0
25/03:00pm 28.6 24.5 2.2 18 13.2 W 13 22 7 12 1009.5 1008.4 0.0
25/02:30pm 28.6 24.4 3.6 20 12.8 W 15 28 8 15 1009.5 - 0.0
25/02:00pm 28.6 25.3 4.6 21 12.5 W 11 22 6 12 1009.5 - 0.0
25/01:30pm 28.5 23.6 4.1 21 12.6 NW 19 28 10 15 1009.8 - 0.0
25/01:00pm 27.5 23.7 4.1 22 12.0 WSW 13 24 7 13 1010.2 - 0.0
25/12:30pm 27.8 25.0 5.0 23 11.9 W 9 15 5 8 1010.7 - 0.0
25/12:00pm 27.1 24.0 5.5 25 11.3 W 11 26 6 14 1011.2 1010.1 0.0
25/11:30am 26.6 24.5 5.9 26 10.9 NW 6 20 3 11 1011.7 - 0.0
25/11:00am 26.3 23.7 6.2 27 10.6 SW 9 20 5 11 1012.2 - 0.0
25/10:30am 25.4 23.8 7.8 32 9.5 ENE 6 17 3 9 1012.6 - 0.0
25/10:00am 23.7 22.4 7.8 36 8.5 SW 4 9 2 5 1012.8 - 0.0
25/09:30am 22.6 22.6 9.7 44 7.1 CALM 0 0 0 0 1013.1 - 0.0
25/09:00am 20.1 20.3 10.5 54 5.3 CALM 0 6 0 3 1013.2 1012.2 0.0
25/08:30am 17.3 17.4 10.3 63 3.8 CALM 0 0 0 0 1013.2 - 0.0
25/08:00am 14.4 13.6 9.6 73 2.5 N 4 7 2 4 1013.0 - 0.0
25/07:30am 12.9 11.9 10.4 85 1.3 N 6 9 3 5 1013.0 - 0.0
25/07:00am 10.5 9.2 9.1 91 0.7 N 6 7 3 4 1012.6 - 0.0
25/06:30am 9.0 8.3 8.4 96 0.3 N 2 6 1 3 1012.3 - 0.0
25/06:00am 8.8 7.2 8.2 96 0.3 N 6 9 3 5 1012.2 1011.1 0.0
25/05:30am 9.0 7.4 8.2 95 0.4 N 6 7 3 4 1012.0 - 0.0
25/05:00am 8.9 8.6 8.5 97 0.2 CALM 0 0 0 0 1011.9 - 0.0
25/04:30am 9.2 8.9 8.6 96 0.3 CALM 0 0 0 0 1011.5 - 0.0
25/04:00am 9.4 9.1 8.8 96 0.3 CALM 0 0 0 0 1011.4 - 0.0
25/03:30am 9.5 9.3 8.9 96 0.3 CALM 0 0 0 0 1011.5 - 0.0
25/03:00am 9.7 9.5 9.1 96 0.3 CALM 0 0 0 0 1011.5 1010.4 0.0
25/02:30am 10.0 9.8 9.2 95 0.4 CALM 0 0 0 0 1011.5 - 0.0
25/02:00am 10.2 8.9 9.2 93 0.5 N 6 7 3 4 1011.6 - 0.0
25/01:30am 10.4 10.3 9.6 95 0.4 CALM 0 0 0 0 1011.9 - 0.0
25/01:00am 10.7 9.5 9.7 93 0.5 N 6 6 3 3 1011.9 - 0.0
25/12:30am 11.1 11.1 9.9 92 0.6 CALM 0 0 0 0 1012.0 - 0.0
25/12:00am 11.4 11.5 10.0 91 0.7 CALM 0 0 0 0 1012.0 1010.9 0.0
 
Date/Time
EST
Temp
°C
App
Temp
°C
Dew
Point
Rel
Hum
%
Delta-T
°C
Wind Press
QNH
hPa
Press
MSL
hPa
Rain
since 9 am
mm
Dir
 
Spd
km/h
Gust
km/h
Spd
kts
Gust
kts
24/11:30pm 12.0 12.1 10.3 89 0.9 CALM 0 0 0 0 1012.1 - 0.0
24/11:00pm 12.4 12.4 9.9 85 1.3 CALM 0 0 0 0 1012.2 - 0.0
24/10:30pm 12.8 12.9 10.3 85 1.3 CALM 0 0 0 0 1012.2 - 0.0
24/10:00pm 13.1 13.3 10.6 85 1.3 CALM 0 0 0 0 1012.2 - 0.0
24/09:30pm 13.3 13.4 10.3 82 1.6 CALM 0 0 0 0 1012.3 - 0.0
24/09:00pm 13.9 14.1 10.5 80 1.8 CALM 0 0 0 0 1012.1 1011.0 0.0
24/08:30pm 14.7 15.0 10.8 77 2.1 CALM 0 0 0 0 1011.9 - 0.0
24/08:00pm 15.5 15.7 10.7 73 2.6 CALM 0 0 0 0 1011.9 - 0.0
24/07:30pm 16.4 16.7 10.9 70 3.0 CALM 0 0 0 0 1011.7 - 0.0
24/07:00pm 17.7 17.9 10.7 63 3.8 CALM 0 0 0 0 1011.2 - 0.0
24/06:30pm 19.3 19.6 11.0 58 4.6 CALM 0 0 0 0 1010.7 - 0.0
24/06:00pm 21.0 21.4 11.2 53 5.5 CALM 0 0 0 0 1010.5 1009.4 0.0
24/05:30pm 23.6 21.6 6.9 34 8.8 SSW 7 11 4 6 1010.3 - 0.0
24/05:00pm 25.0 22.2 5.2 28 10.2 SSW 9 17 5 9 1009.9 - 0.0
24/04:30pm 25.8 22.5 4.4 25 10.9 WSW 11 19 6 10 1009.8 - 0.0
24/04:00pm 26.7 23.3 5.8 26 11.0 SSW 13 19 7 10 1009.6 - 0.0
24/03:30pm 26.9 23.9 6.1 26 11.0 WSW 11 19 6 10 1009.5 - 0.0
24/03:00pm 26.7 23.2 5.5 25 11.1 SSW 13 22 7 12 1009.5 1008.4 0.0
24/02:30pm 26.8 23.3 5.3 25 11.2 WSW 13 20 7 11 1009.7 - 0.0
24/02:00pm 26.6 23.6 6.2 27 10.8 SSW 11 17 6 9 1009.8 - 0.0
24/01:30pm 26.1 22.8 6.2 28 10.5 SW 13 20 7 11 1010.1 - 0.0
24/01:00pm 26.2 23.9 7.5 30 10.1 NW 9 22 5 12 1010.8 - 0.0
24/12:30pm 26.0 24.2 8.0 32 9.8 SW 7 17 4 9 1011.4 - 0.0
24/12:00pm 25.4 23.3 8.1 33 9.4 W 9 19 5 10 1011.8 1010.7 0.0
24/11:30am 24.4 22.6 7.8 34 8.9 SW 7 15 4 8 1012.3 - 0.0
24/11:00am 24.4 22.4 8.6 36 8.6 WSW 9 17 5 9 1012.8 - 0.0
24/10:30am 23.7 22.3 9.6 40 7.8 WSW 7 13 4 7 1013.0 - 0.0
24/10:00am 23.8 23.1 9.9 41 7.7 NW 4 7 2 4 1013.3 - 0.0
24/09:30am 21.9 22.3 11.2 50 6.0 CALM 0 0 0 0 1013.3 - 0.0
24/09:00am 20.4 21.0 11.9 58 4.8 CALM 0 0 0 0 1013.5 1012.5 0.0
24/08:30am 17.6 17.4 11.8 69 3.2 N 4 6 2 3 1013.7 - 0.0
24/08:00am 14.6 14.0 11.7 83 1.6 N 6 7 3 4 1013.4 - 0.0
24/07:30am 12.7 11.9 11.2 91 0.8 N 6 9 3 5 1013.1 - 0.0
24/07:00am 10.9 11.1 10.5 97 0.2 CALM 0 0 0 0 1013.1 - 0.0
24/06:30am 10.4 10.5 10.0 97 0.2 CALM 0 0 0 0 1012.5 - 0.0
24/06:00am 10.1 10.0 9.5 96 0.3 CALM 0 0 0 0 1012.2 1011.1 0.0
24/05:30am 10.1 10.0 9.5 96 0.3 CALM 0 0 0 0 1012.0 - 0.0
24/05:00am 10.4 10.5 10.0 97 0.2 CALM 0 0 0 0 1011.6 - 0.0
24/04:30am 10.9 11.0 10.1 95 0.4 CALM 0 0 0 0 1011.9 - 0.0
24/04:00am 10.8 10.9 10.2 96 0.3 CALM 0 0 0 0 1011.7 - 0.0
24/03:30am 11.2 11.4 10.6 96 0.3 CALM 0 0 0 0 1011.6 - 0.0
24/03:00am 11.5 11.7 10.7 95 0.4 CALM 0 0 0 0 1012.0 1010.9 0.0
24/02:30am 11.7 12.1 11.3 97 0.2 CALM 0 0 0 0 1012.0 - 0.0
24/02:00am 11.8 12.1 11.0 95 0.4 CALM 0 0 0 0 1012.2 - 0.0
24/01:30am 12.1 12.5 11.4 95 0.4 CALM 0 0 0 0 1012.5 - 0.0
24/01:00am 12.2 12.7 11.5 95 0.4 CALM 0 0 0 0 1012.6 - 0.0
24/12:30am 12.7 13.3 11.8 94 0.5 CALM 0 0 0 0 1012.9 - 0.0
24/12:00am 13.1 13.7 11.8 92 0.7 CALM 0 0 0 0 1012.9 1011.9 0.0
 
Date/Time
EST
Temp
°C
App
Temp
°C
Dew
Point
Rel
Hum
%
Delta-T
°C
Wind Press
QNH
hPa
Press
MSL
hPa
Rain
since 9 am
mm
Dir
 
Spd
km/h
Gust
km/h
Spd
kts
Gust
kts
23/11:30pm 13.2 13.8 11.9 92 0.7 CALM 0 0 0 0 1012.8 - 0.0
23/11:00pm 13.7 14.3 11.9 89 1.0 CALM 0 0 0 0 1013.0 - 0.0
23/10:30pm 13.8 14.4 12.0 89 1.0 CALM 0 0 0 0 1013.3 - 0.0
23/10:00pm 13.8 14.5 12.3 91 0.8 CALM 0 0 0 0 1013.4 - 0.0
23/09:30pm 14.0 14.8 12.4 90 0.9 CALM 0 0 0 0 1013.5 - 0.0
23/09:00pm 14.3 15.0 12.1 87 1.2 CALM 0 0 0 0 1013.2 1012.2 0.0
23/08:30pm 14.2 14.8 12.0 87 1.2 CALM 0 0 0 0 1013.1 - 0.0
23/08:00pm 14.9 15.7 12.4 85 1.4 CALM 0 0 0 0 1013.1 - 0.0
23/07:30pm 15.5 16.4 12.8 84 1.5 CALM 0 0 0 0 1012.9 - 0.0
23/07:00pm 16.3 17.1 12.4 78 2.2 CALM 0 0 0 0 1012.6 - 0.0
23/06:30pm 17.8 18.4 11.9 68 3.3 CALM 0 0 0 0 1012.3 - 0.0
23/06:00pm 18.8 19.7 13.0 69 3.3 CALM 0 0 0 0 1012.1 1011.0 0.0
23/05:30pm 21.1 19.4 9.7 48 6.2 S 9 13 5 7 1011.8 - 0.0
23/05:00pm 21.9 20.6 9.9 46 6.6 SSW 7 11 4 6 1011.7 - 0.0
23/04:30pm 23.4 22.2 9.4 41 7.7 S 6 11 3 6 1011.3 - 0.0
23/04:00pm 23.8 21.4 8.7 38 8.2 S 11 17 6 9 1011.2 - 0.0
23/03:30pm 23.7 21.8 9.1 39 8.0 SSW 9 15 5 8 1011.2 - 0.0
23/03:00pm 24.0 22.0 8.8 38 8.3 S 9 17 5 9 1011.5 1010.4 0.0
23/02:30pm 23.7 21.8 9.1 39 8.0 S 9 15 5 8 1011.6 - 0.0
23/02:00pm 23.5 21.3 9.3 40 7.8 SSW 11 20 6 11 1011.8 - 0.0
23/01:30pm 22.9 21.1 9.6 42 7.3 S 9 20 5 11 1012.2 - 0.0
23/01:00pm 22.8 20.6 9.5 42 7.3 S 11 20 6 11 1012.5 - 0.0
23/12:30pm 22.2 19.7 9.6 44 6.9 S 13 20 7 11 1013.4 - 0.0
23/12:00pm 22.0 20.2 9.3 44 6.9 SSW 9 19 5 10 1014.0 1012.9 0.0
23/11:30am 21.2 18.9 8.9 45 6.6 SSW 11 20 6 11 1014.9 - 0.0
23/11:00am 20.8 18.5 9.1 47 6.3 WSW 11 19 6 10 1015.4 - 0.0
23/10:30am 20.2 17.6 9.4 50 5.8 S 13 24 7 13 1015.6 - 0.0
23/10:00am 19.5 17.4 9.7 53 5.3 SSW 11 20 6 11 1015.8 - 0.0
23/09:30am 18.6 16.4 9.4 55 4.9 SSW 11 19 6 10 1016.0 - 0.0
23/09:00am 17.4 15.3 9.9 61 4.0 SW 11 17 6 9 1016.1 1015.1 0.0
23/08:30am 16.1 15.1 10.9 71 2.8 S 7 13 4 7 1016.0 - 0.0
23/08:00am 14.0 14.4 11.2 83 1.5 CALM 0 0 0 0 1015.8 - 0.0
23/07:30am 11.5 11.6 10.3 92 0.6 CALM 0 0 0 0 1015.5 - 0.0
23/07:00am 9.1 8.7 8.3 95 0.4 CALM 0 0 0 0 1015.0 - 0.0
23/06:30am 7.8 7.2 7.4 97 0.2 CALM 0 0 0 0 1014.9 - 0.0
23/06:00am 7.9 7.3 7.5 97 0.2 CALM 0 0 0 0 1014.8 1013.7 0.0
23/05:30am 7.8 7.2 7.4 97 0.2 CALM 0 0 0 0 1014.6 - 0.0
23/05:00am 8.1 7.6 7.7 97 0.2 CALM 0 0 0 0 1014.5 - 0.0
23/04:30am 8.1 7.6 7.7 97 0.2 CALM 0 0 0 0 1014.2 - 0.0
23/04:00am 8.2 7.7 7.8 97 0.2 CALM 0 0 0 0 1014.0 - 0.0
23/03:30am 8.4 7.9 8.0 97 0.2 CALM 0 0 0 0 1014.0 - 0.0
23/03:00am 8.7 8.3 8.3 97 0.2 CALM 0 0 0 0 1014.1 1013.0 0.0
23/02:30am 8.7 8.3 8.3 97 0.2 CALM 0 0 0 0 1014.2 - 0.0
23/02:00am 8.8 8.5 8.6 99 0.1 CALM 0 0 0 0 1014.5 - 0.0
23/01:30am 9.1 8.8 8.7 97 0.2 CALM 0 0 0 0 1014.8 - 0.0
23/01:00am 9.4 9.2 9.0 97 0.2 CALM 0 0 0 0 1015.0 - 0.0
23/12:30am 9.7 9.6 9.3 97 0.2 CALM 0 0 0 0 1015.4 - 0.0
23/12:00am 9.9 9.8 9.3 96 0.3 CALM 0 0 0 0 1015.6 1014.6 0.0
 
Date/Time
EST
Temp
°C
App
Temp
°C
Dew
Point
Rel
Hum
%
Delta-T
°C
Wind Press
QNH
hPa
Press
MSL
hPa
Rain
since 9 am
mm
Dir
 
Spd
km/h
Gust
km/h
Spd
kts
Gust
kts
22/11:30pm 10.3 10.3 9.7 96 0.3 CALM 0 0 0 0 1015.9 - 0.0
22/11:00pm 10.7 10.7 9.9 95 0.4 CALM 0 0 0 0 1016.2 - 0.0
22/10:30pm 11.1 11.2 10.1 94 0.5 CALM 0 0 0 0 1016.3 - 0.0
22/10:00pm 11.7 11.9 10.6 93 0.6 CALM 0 0 0 0 1016.5 - 0.0
22/09:30pm 12.6 12.8 10.7 88 1.0 CALM 0 0 0 0 1016.6 - 0.0
22/09:00pm 13.6 13.4 10.4 81 1.7 SSW 2 6 1 3 1016.5 1015.5 0.0

Other Formats:

Comma delimited format used in spreadsheet applications
http://www.bom.gov.au/fwo/IDQ60801/IDQ60801.95529.axf

JavaScript Object Notation format (JSON) in row-major order
http://www.bom.gov.au/fwo/IDQ60801/IDQ60801.95529.json